createdAt,value
2022-12-12T00:00:21.424Z,97804.66
2022-12-12T00:02:48.431Z,97813.09
2022-12-12T00:05:16.857Z,97805.38
2022-12-12T00:07:43.470Z,97803.63
2022-12-12T00:10:10.498Z,97812.31
2022-12-12T00:12:37.192Z,97809.66
2022-12-12T00:15:04.294Z,97813.13
2022-12-12T00:17:30.884Z,97811.31
2022-12-12T00:19:57.500Z,97820.78
2022-12-12T00:22:24.086Z,97819.13
2022-12-12T00:24:50.811Z,97820.00
2022-12-12T00:27:19.475Z,97820.13
2022-12-12T00:29:46.092Z,97821.88
2022-12-12T00:32:12.646Z,97825.31
2022-12-12T00:34:39.276Z,97826.31
2022-12-12T00:37:06.047Z,97821.25
2022-12-12T00:39:32.714Z,97822.09
2022-12-12T00:41:59.306Z,97822.19
2022-12-12T00:44:25.922Z,97824.69
2022-12-12T00:46:52.646Z,97831.63
2022-12-12T00:49:19.345Z,97834.25
2022-12-12T00:51:46.171Z,97829.09
2022-12-12T00:54:12.946Z,97834.19
2022-12-12T00:56:39.823Z,97834.19
2022-12-12T00:59:06.575Z,97830.69
2022-12-12T01:01:34.505Z,97836.69
2022-12-12T01:04:02.213Z,97834.91
2022-12-12T01:06:29.001Z,97834.81
2022-12-12T01:08:55.597Z,97836.66
2022-12-12T01:11:23.041Z,97839.03
2022-12-12T01:13:51.841Z,97843.09
2022-12-12T01:16:18.993Z,97846.44
2022-12-12T01:18:45.879Z,97849.09
2022-12-12T01:21:16.286Z,97846.28
2022-12-12T01:23:43.504Z,97850.50
2022-12-12T01:26:16.884Z,97852.22
2022-12-12T01:28:44.612Z,97847.06
2022-12-12T01:31:12.340Z,97853.75
2022-12-12T01:33:39.675Z,97855.31
2022-12-12T01:36:06.681Z,97849.03
2022-12-12T01:38:33.382Z,97856.56
2022-12-12T01:41:00.218Z,97848.53
2022-12-12T01:43:28.877Z,97854.19
2022-12-12T01:46:02.713Z,97853.22
2022-12-12T01:48:36.845Z,97855.56
2022-12-12T01:51:09.532Z,97852.00
2022-12-12T01:53:38.854Z,97858.63
2022-12-12T01:56:12.558Z,97854.94
2022-12-12T01:58:47.549Z,97859.69
2022-12-12T02:01:15.790Z,97854.44
2022-12-12T02:03:44.211Z,97859.31
2022-12-12T02:06:20.247Z,97858.59
2022-12-12T02:08:48.612Z,97866.31
2022-12-12T02:11:15.315Z,97863.38
2022-12-12T02:13:42.048Z,97864.28
2022-12-12T02:16:45.613Z,97859.00
2022-12-12T02:19:15.203Z,97865.50
2022-12-12T02:21:55.417Z,97863.75
2022-12-12T02:24:54.194Z,97862.13
2022-12-12T02:27:23.752Z,97866.50
2022-12-12T02:30:02.409Z,97862.91
2022-12-12T02:32:47.511Z,97868.81
2022-12-12T02:35:14.271Z,97868.81
2022-12-12T02:38:02.861Z,97863.81
2022-12-12T02:40:43.320Z,97873.09
2022-12-12T02:43:17.668Z,97875.63
2022-12-12T02:45:50.050Z,97880.53
2022-12-12T02:48:25.797Z,97879.69
2022-12-12T02:50:56.220Z,97877.22
2022-12-12T02:53:24.149Z,97882.44
2022-12-12T02:56:02.170Z,97883.16
2022-12-12T02:58:28.911Z,97890.69
2022-12-12T03:01:11.381Z,97881.31
2022-12-12T03:04:06.215Z,97883.09
2022-12-12T03:07:13.657Z,97873.50
2022-12-12T03:10:10.310Z,97880.34
2022-12-12T03:12:59.016Z,97874.31
2022-12-12T03:15:39.153Z,97880.34
2022-12-12T03:18:17.418Z,97880.16
2022-12-12T03:21:08.086Z,97881.03
2022-12-12T03:23:44.167Z,97873.31
2022-12-12T03:26:23.770Z,97882.88
2022-12-12T03:29:01.012Z,97874.25
2022-12-12T03:31:32.820Z,97883.56
2022-12-12T03:34:06.395Z,97883.31
2022-12-12T03:36:43.848Z,97891.75
2022-12-12T03:39:34.017Z,97886.63
2022-12-12T03:42:10.276Z,97889.09
2022-12-12T03:44:49.314Z,97879.63
2022-12-12T03:47:22.937Z,97889.09
2022-12-12T03:49:55.648Z,97884.75
2022-12-12T03:52:33.550Z,97880.41
2022-12-12T03:55:13.066Z,97883.22
2022-12-12T03:57:51.209Z,97877.22
2022-12-12T04:00:18.291Z,97885.75
2022-12-12T04:02:53.852Z,97885.06
2022-12-12T04:05:21.902Z,97883.28
2022-12-12T04:07:55.365Z,97883.22
2022-12-12T04:10:44.179Z,97885.13
2022-12-12T04:13:32.399Z,97880.84
2022-12-12T04:16:05.508Z,97878.09
2022-12-12T04:18:38.020Z,97882.22
2022-12-12T04:21:56.007Z,97883.88
2022-12-12T04:24:43.647Z,97881.28
2022-12-12T04:27:25.880Z,97883.00
2022-12-12T04:30:08.272Z,97879.81
2022-12-12T04:32:42.526Z,97888.38
2022-12-12T04:35:35.949Z,97891.13
2022-12-12T04:38:06.488Z,97883.44
2022-12-12T04:40:36.843Z,97884.59
2022-12-12T04:43:06.419Z,97886.59
2022-12-12T04:45:42.455Z,97890.97
2022-12-12T04:48:14.813Z,97899.84
2022-12-12T04:50:44.061Z,97901.47
2022-12-12T04:53:18.840Z,97895.59
2022-12-12T04:55:51.500Z,97901.69
2022-12-12T04:58:18.622Z,97894.28
2022-12-12T05:01:03.826Z,97900.63
2022-12-12T05:03:30.390Z,97903.41
2022-12-12T05:06:03.017Z,97892.38
2022-12-12T05:08:48.979Z,97904.56
2022-12-12T05:11:18.519Z,97910.47
2022-12-12T05:13:45.347Z,97910.78
2022-12-12T05:16:15.104Z,97910.13
2022-12-12T05:18:41.769Z,97911.88
2022-12-12T05:21:08.340Z,97905.25
2022-12-12T05:23:35.135Z,97903.50
2022-12-12T05:26:07.439Z,97906.22
2022-12-12T05:28:33.983Z,97905.41
2022-12-12T05:31:00.639Z,97914.78
2022-12-12T05:33:27.255Z,97912.28
2022-12-12T05:35:53.834Z,97913.94
2022-12-12T05:38:20.385Z,97905.47
2022-12-12T05:40:49.054Z,97911.38
2022-12-12T05:43:15.672Z,97914.00
2022-12-12T05:45:42.525Z,97909.03
2022-12-12T05:48:09.257Z,97914.88
2022-12-12T05:50:35.878Z,97913.38
2022-12-12T05:53:02.492Z,97916.09
2022-12-12T05:55:29.167Z,97921.19
2022-12-12T05:57:55.831Z,97909.25
2022-12-12T06:00:22.515Z,97910.69
2022-12-12T06:02:49.759Z,97910.88
2022-12-12T06:05:16.566Z,97912.28
2022-12-12T06:07:43.377Z,97908.84
2022-12-12T06:10:10.211Z,97914.66
2022-12-12T06:12:36.897Z,97925.63
2022-12-12T06:15:04.094Z,97925.94
2022-12-12T06:17:33.373Z,97929.16
2022-12-12T06:20:08.142Z,97925.63
2022-12-12T06:22:36.591Z,97931.66
2022-12-12T06:25:03.816Z,97928.13
2022-12-12T06:27:30.409Z,97929.25
2022-12-12T06:29:57.239Z,97925.94
2022-12-12T06:32:23.873Z,97923.41
2022-12-12T06:34:50.708Z,97921.69
2022-12-12T06:37:17.777Z,97929.38
2022-12-12T06:39:44.507Z,97929.31
2022-12-12T06:42:14.075Z,97928.56
2022-12-12T06:44:40.623Z,97934.38
2022-12-12T06:47:07.399Z,97939.66
2022-12-12T06:49:34.175Z,97944.75
2022-12-12T06:52:01.148Z,97939.81
2022-12-12T06:54:27.880Z,97942.41
2022-12-12T06:56:54.537Z,97951.81
2022-12-12T06:59:21.333Z,97946.84
2022-12-12T07:01:48.079Z,97948.56
2022-12-12T07:04:15.423Z,97946.00
2022-12-12T07:06:42.593Z,97944.25
2022-12-12T07:09:09.483Z,97949.28
2022-12-12T07:11:36.127Z,97937.66
2022-12-12T07:14:05.607Z,97950.63
2022-12-12T07:16:32.182Z,97945.28
2022-12-12T07:18:58.871Z,97941.72
2022-12-12T07:21:25.736Z,97943.50
2022-12-12T07:23:52.469Z,97946.22
2022-12-12T07:26:21.706Z,97955.75
2022-12-12T07:28:49.999Z,97959.16
2022-12-12T07:31:20.502Z,97963.28
2022-12-12T07:33:47.466Z,97959.97
2022-12-12T07:36:16.223Z,97964.34
2022-12-12T07:38:43.801Z,97973.75
2022-12-12T07:41:16.655Z,97977.91
2022-12-12T07:43:45.146Z,97971.16
2022-12-12T07:46:24.225Z,97971.28
2022-12-12T07:48:52.044Z,97971.38
2022-12-12T07:51:19.100Z,97980.91
2022-12-12T07:53:45.888Z,97976.69
2022-12-12T07:56:16.480Z,97982.91
2022-12-12T07:58:43.284Z,97981.47
2022-12-12T08:01:22.328Z,97992.75
2022-12-12T08:03:57.226Z,98000.53
2022-12-12T08:06:24.427Z,97994.78
2022-12-12T08:08:52.797Z,98003.38
2022-12-12T08:11:22.425Z,98009.56
2022-12-12T08:13:49.192Z,98001.56
2022-12-12T08:16:24.650Z,98015.22
2022-12-12T08:18:54.662Z,98012.16
2022-12-12T08:21:25.841Z,98016.59
2022-12-12T08:26:29.094Z,98015.53
2022-12-12T08:28:56.759Z,98010.41
2022-12-12T08:31:23.973Z,98022.81
2022-12-12T08:33:50.978Z,98028.03
2022-12-12T08:36:26.892Z,98023.03
2022-12-12T08:38:53.615Z,98023.03
2022-12-12T08:41:20.646Z,98022.47
2022-12-12T08:43:47.744Z,98031.94
2022-12-12T08:46:18.065Z,98029.44
2022-12-12T08:48:46.095Z,98037.22
2022-12-12T08:51:13.116Z,98036.50
2022-12-12T08:53:39.789Z,98040.94
2022-12-12T08:56:06.883Z,98047.59
2022-12-12T08:58:33.592Z,98047.69
2022-12-12T09:01:00.215Z,98051.00
2022-12-12T09:03:29.578Z,98056.09
2022-12-12T09:05:56.559Z,98048.44
2022-12-12T09:08:23.126Z,98052.75
2022-12-12T09:10:51.222Z,98043.44
2022-12-12T09:13:18.090Z,98047.69
2022-12-12T09:15:45.527Z,98047.84
2022-12-12T09:18:12.446Z,98046.94
2022-12-12T09:20:39.141Z,98053.16
2022-12-12T09:23:05.898Z,98054.75
2022-12-12T09:25:32.626Z,98059.28
2022-12-12T09:27:59.491Z,98050.19
2022-12-12T09:30:26.117Z,98054.84
2022-12-12T09:32:52.759Z,98055.66
2022-12-12T09:35:19.620Z,98062.69
2022-12-12T09:37:46.454Z,98058.63
2022-12-12T09:40:19.045Z,98051.09
2022-12-12T09:42:51.432Z,98050.28
2022-12-12T09:45:20.270Z,98061.53
2022-12-12T09:47:50.852Z,98055.41
2022-12-12T09:50:39.268Z,98054.69
2022-12-12T09:53:15.725Z,98055.53
2022-12-12T09:56:00.363Z,98056.41
2022-12-12T09:58:46.702Z,98053.09
2022-12-12T10:01:42.362Z,98057.59
2022-12-12T10:04:30.548Z,98060.25
2022-12-12T10:07:23.442Z,98061.53
2022-12-12T10:09:52.739Z,98055.66
2022-12-12T10:12:22.084Z,98064.25
2022-12-12T10:14:54.780Z,98058.97
2022-12-12T10:17:28.201Z,98053.66
2022-12-12T10:20:01.824Z,98046.06
2022-12-12T10:22:40.591Z,98054.44
2022-12-12T10:25:22.906Z,98052.97
2022-12-12T10:28:09.287Z,98061.59
2022-12-12T10:30:46.727Z,98050.47
2022-12-12T10:33:45.555Z,98046.25
2022-12-12T10:36:21.290Z,98049.91
2022-12-12T10:39:16.615Z,98044.72
2022-12-12T10:41:54.004Z,98048.34
2022-12-12T10:44:47.004Z,98045.97
2022-12-12T10:47:14.563Z,98049.50
2022-12-12T10:49:42.317Z,98040.81
2022-12-12T10:52:22.558Z,98044.28
2022-12-12T10:54:58.276Z,98038.38
2022-12-12T10:57:26.910Z,98045.31
2022-12-12T10:59:56.781Z,98045.75
2022-12-12T11:02:39.304Z,98042.16
2022-12-12T11:05:06.222Z,98038.00
2022-12-12T11:07:45.376Z,98042.41
2022-12-12T11:10:43.208Z,98036.31
2022-12-12T11:13:09.824Z,98032.09
2022-12-12T11:15:52.361Z,98043.41
2022-12-12T11:18:22.152Z,98041.69
2022-12-12T11:21:01.873Z,98039.84
2022-12-12T11:23:30.165Z,98043.59
2022-12-12T11:25:59.077Z,98036.88
2022-12-12T11:28:31.246Z,98044.88
2022-12-12T11:30:58.600Z,98050.81
2022-12-12T11:33:35.805Z,98037.09
2022-12-12T11:36:06.475Z,98047.25
2022-12-12T11:38:49.730Z,98049.34
2022-12-12T11:41:16.457Z,98052.97
2022-12-12T11:43:49.228Z,98047.19
2022-12-12T11:46:18.683Z,98036.22
2022-12-12T11:48:51.544Z,98044.13
2022-12-12T11:51:44.278Z,98039.78
2022-12-12T11:54:26.864Z,98040.56
2022-12-12T11:56:59.270Z,98039.72
2022-12-12T11:59:56.827Z,98033.81
2022-12-12T12:03:05.871Z,98032.75
2022-12-12T12:06:07.162Z,98027.63
2022-12-12T12:08:40.156Z,98020.81
2022-12-12T12:11:25.167Z,98026.78
2022-12-12T12:14:13.569Z,98028.50
2022-12-12T12:17:13.004Z,98022.47
2022-12-12T12:19:49.643Z,98025.16
2022-12-12T12:22:27.895Z,98022.47
2022-12-12T12:25:05.929Z,98016.47
2022-12-12T12:28:18.425Z,98026.31
2022-12-12T12:31:24.017Z,98011.88
2022-12-12T12:34:09.299Z,98014.47
2022-12-12T12:36:55.093Z,98017.09
2022-12-12T12:39:52.254Z,98017.78
2022-12-12T12:42:25.827Z,98017.69
2022-12-12T12:45:07.031Z,98016.75
2022-12-12T12:48:17.426Z,98017.50
2022-12-12T12:51:06.052Z,98019.28
2022-12-12T12:53:38.973Z,98014.97
2022-12-12T12:56:25.840Z,98015.84
2022-12-12T12:58:56.878Z,98015.69
2022-12-12T13:01:28.330Z,98016.50
2022-12-12T13:04:07.050Z,98008.75
2022-12-12T13:06:39.948Z,98016.41
2022-12-12T13:09:28.854Z,98008.59
2022-12-12T13:12:02.384Z,98013.81
2022-12-12T13:14:39.882Z,98009.41
2022-12-12T13:17:14.223Z,98012.72
2022-12-12T13:19:44.384Z,98018.63
2022-12-12T13:22:18.941Z,98013.44
2022-12-12T13:25:14.754Z,98014.94
2022-12-12T13:27:46.153Z,98020.09
2022-12-12T13:30:29.398Z,98024.56
2022-12-12T13:33:18.986Z,98016.53
2022-12-12T13:35:53.148Z,98025.00
2022-12-12T13:38:26.647Z,98032.59
2022-12-12T13:41:06.447Z,98028.38
2022-12-12T13:43:39.103Z,98023.22
2022-12-12T13:46:21.049Z,98023.13
2022-12-12T13:48:53.682Z,98032.44
2022-12-12T13:51:32.441Z,98037.59
2022-12-12T13:54:12.564Z,98031.50
2022-12-12T13:56:47.874Z,98031.56
2022-12-12T13:59:23.592Z,98032.44
2022-12-12T14:02:09.401Z,98025.41
2022-12-12T14:04:40.088Z,98026.22
2022-12-12T14:07:12.426Z,98028.75
2022-12-12T14:09:50.335Z,98027.75
2022-12-12T14:12:32.205Z,98026.91
2022-12-12T14:15:06.113Z,98032.81
2022-12-12T14:17:42.270Z,98035.31
2022-12-12T14:20:26.254Z,98036.09
2022-12-12T14:22:56.295Z,98037.63
2022-12-12T14:25:40.455Z,98037.78
2022-12-12T14:28:24.275Z,98047.97
2022-12-12T14:31:10.508Z,98048.69
2022-12-12T14:33:49.100Z,98046.06
2022-12-12T14:36:37.375Z,98052.81
2022-12-12T14:39:39.482Z,98047.63
2022-12-12T14:42:08.099Z,98056.25
2022-12-12T14:44:47.794Z,98058.69
2022-12-12T14:47:17.751Z,98054.25
2022-12-12T14:49:44.998Z,98061.94
2022-12-12T14:52:23.777Z,98062.59
2022-12-12T14:54:51.086Z,98060.63
2022-12-12T14:57:22.080Z,98063.88
2022-12-12T14:59:50.585Z,98063.78
2022-12-12T15:02:26.547Z,98075.66
2022-12-12T15:05:04.146Z,98073.59
2022-12-12T15:07:38.492Z,98076.72
2022-12-12T15:10:29.551Z,98073.06
2022-12-12T15:12:56.284Z,98071.13
2022-12-12T15:15:30.662Z,98068.25
2022-12-12T15:18:00.975Z,98067.13
2022-12-12T15:20:32.251Z,98065.25
2022-12-12T15:23:04.745Z,98069.47
2022-12-12T15:25:34.722Z,98073.63
2022-12-12T15:28:02.183Z,98069.13
2022-12-12T15:30:28.737Z,98072.31
2022-12-12T15:32:55.927Z,98072.34
2022-12-12T15:35:23.727Z,98076.47
2022-12-12T15:37:59.719Z,98081.56
2022-12-12T15:40:27.776Z,98082.78
2022-12-12T15:42:57.785Z,98091.09
2022-12-12T15:45:27.760Z,98083.25
2022-12-12T15:47:55.366Z,98090.75
2022-12-12T15:50:29.745Z,98086.44
2022-12-12T15:53:00.327Z,98086.09
2022-12-12T15:55:27.472Z,98084.56
2022-12-12T15:57:54.213Z,98084.47
2022-12-12T16:00:53.160Z,98078.16
2022-12-12T16:03:22.029Z,98076.22
2022-12-12T16:06:19.243Z,98083.59
2022-12-12T16:08:49.727Z,98077.38
2022-12-12T16:11:37.624Z,98073.72
2022-12-12T16:14:05.821Z,98074.03
2022-12-12T16:17:03.240Z,98072.16
2022-12-12T16:19:57.628Z,98074.41
2022-12-12T16:22:32.818Z,98068.84
2022-12-12T16:25:28.954Z,98073.31
2022-12-12T16:28:00.665Z,98072.50
2022-12-12T16:30:28.349Z,98071.06
2022-12-12T16:32:55.346Z,98077.91
2022-12-12T16:35:23.869Z,98079.28
2022-12-12T16:37:53.584Z,98076.53
2022-12-12T16:40:21.730Z,98090.13
2022-12-12T16:43:07.947Z,98095.81
2022-12-12T16:45:36.341Z,98097.34
2022-12-12T16:48:15.582Z,98106.72
2022-12-12T16:50:42.952Z,98105.78
2022-12-12T16:53:10.104Z,98107.50
2022-12-12T16:55:39.755Z,98110.91
2022-12-12T16:58:06.412Z,98105.00
2022-12-12T17:00:33.328Z,98107.59
2022-12-12T17:03:00.069Z,98099.97
2022-12-12T17:05:27.591Z,98107.81
2022-12-12T17:07:54.625Z,98103.44
2022-12-12T17:10:24.683Z,98106.06
2022-12-12T17:12:52.578Z,98107.59
2022-12-12T17:15:27.824Z,98106.72
2022-12-12T17:17:54.945Z,98098.22
2022-12-12T17:20:22.834Z,98105.78
2022-12-12T17:22:51.208Z,98111.81
2022-12-12T17:25:18.932Z,98112.13
2022-12-12T17:27:45.638Z,98126.19
2022-12-12T17:30:13.798Z,98125.22
2022-12-12T17:32:40.747Z,98121.94
2022-12-12T17:35:08.223Z,98120.31
2022-12-12T17:37:35.453Z,98112.56
2022-12-12T17:40:03.141Z,98113.78
2022-12-12T17:42:31.658Z,98113.78
2022-12-12T17:44:58.693Z,98106.88
2022-12-12T17:47:25.461Z,98122.47
2022-12-12T17:49:52.146Z,98122.25
2022-12-12T17:52:18.953Z,98119.50
2022-12-12T17:55:54.299Z,98119.56
2022-12-12T17:57:32.297Z,98128.09
2022-12-12T17:59:58.949Z,98120.50
2022-12-12T18:02:25.915Z,98123.69
2022-12-12T18:04:52.761Z,98124.50
2022-12-12T18:07:20.693Z,98128.06
2022-12-12T18:09:47.413Z,98121.19
2022-12-12T18:12:14.021Z,98112.94
2022-12-12T18:14:40.590Z,98120.75
2022-12-12T18:17:07.659Z,98122.25
2022-12-12T18:19:34.400Z,98113.22
2022-12-12T18:22:02.094Z,98113.22
2022-12-12T18:24:33.161Z,98112.13
2022-12-12T18:27:01.262Z,98124.00
2022-12-12T18:29:28.013Z,98126.44
2022-12-12T18:31:54.883Z,98133.31
2022-12-12T18:34:21.810Z,98139.16
2022-12-12T18:36:49.518Z,98146.00
2022-12-12T18:39:16.752Z,98150.97
2022-12-12T18:41:43.711Z,98146.72
2022-12-12T18:44:13.705Z,98152.78
2022-12-12T18:46:43.439Z,98152.59
2022-12-12T18:49:15.684Z,98153.47
2022-12-12T18:51:43.291Z,98151.56
2022-12-12T18:54:15.253Z,98155.81
2022-12-12T18:56:43.841Z,98154.81
2022-12-12T18:59:10.634Z,98148.88
2022-12-12T19:01:38.882Z,98143.38
2022-12-12T19:04:12.222Z,98140.16
2022-12-12T19:06:41.109Z,98143.31
2022-12-12T19:09:12.269Z,98134.22
2022-12-12T19:11:39.104Z,98137.75
2022-12-12T19:14:07.395Z,98136.94
2022-12-12T19:16:34.687Z,98133.81
2022-12-12T19:19:02.136Z,98130.34
2022-12-12T19:21:28.762Z,98138.41
2022-12-12T19:23:55.855Z,98133.28
2022-12-12T19:26:28.005Z,98130.88
2022-12-12T19:29:01.810Z,98131.88
2022-12-12T19:31:28.437Z,98129.78
2022-12-12T19:33:56.610Z,98132.38
2022-12-12T19:36:25.716Z,98129.72
2022-12-12T19:38:53.927Z,98134.16
2022-12-12T19:41:22.356Z,98140.69
2022-12-12T19:43:51.018Z,98151.81
2022-12-12T19:46:20.477Z,98154.22
2022-12-12T19:48:48.331Z,98153.06
2022-12-12T19:51:16.020Z,98165.84
2022-12-12T19:53:48.995Z,98171.13
2022-12-12T19:56:21.629Z,98162.56
2022-12-12T19:58:49.286Z,98162.53
2022-12-12T20:01:22.082Z,98156.09
2022-12-12T20:03:55.062Z,98155.88
2022-12-12T20:06:23.029Z,98158.06
2022-12-12T20:08:49.933Z,98152.81
2022-12-12T20:11:21.232Z,98157.06
2022-12-12T20:13:53.073Z,98163.81
2022-12-12T20:16:22.631Z,98166.00
2022-12-12T20:18:50.127Z,98165.25
2022-12-12T20:21:43.399Z,98160.44
2022-12-12T20:24:07.758Z,98153.81
2022-12-12T20:26:34.755Z,98160.13
2022-12-12T20:29:02.298Z,98160.56
2022-12-12T20:31:33.333Z,98158.91
2022-12-12T20:34:01.237Z,98160.38
2022-12-12T20:36:34.218Z,98152.19
2022-12-12T20:39:05.245Z,98154.97
2022-12-12T20:41:38.581Z,98149.47
2022-12-12T20:44:06.828Z,98143.78
2022-12-12T20:46:36.100Z,98145.09
2022-12-12T20:49:05.238Z,98145.69
2022-12-12T20:54:21.578Z,98146.84
2022-12-12T20:56:51.560Z,98156.47
2022-12-12T20:59:18.393Z,98158.44
2022-12-12T21:01:45.178Z,98164.19
2022-12-12T21:04:11.945Z,98155.72
2022-12-12T21:06:41.081Z,98158.22
2022-12-12T21:09:10.411Z,98154.25
2022-12-12T21:11:38.543Z,98151.94
2022-12-12T21:14:06.997Z,98158.41
2022-12-12T21:16:37.403Z,98156.13
2022-12-12T21:19:11.571Z,98151.72
2022-12-12T21:21:40.127Z,98150.34
2022-12-12T21:24:07.349Z,98157.03
2022-12-12T21:26:34.410Z,98146.97
2022-12-12T21:29:02.240Z,98165.16
2022-12-12T21:31:34.141Z,98159.75
2022-12-12T21:34:01.289Z,98169.00
2022-12-12T21:36:29.512Z,98165.28
2022-12-12T21:38:58.412Z,98157.88
2022-12-12T21:41:25.812Z,98154.34
2022-12-12T21:43:53.253Z,98146.63
2022-12-12T21:46:22.981Z,98148.09
2022-12-12T21:49:10.555Z,98145.72
2022-12-12T21:51:38.438Z,98146.72
2022-12-12T21:54:06.885Z,98144.31
2022-12-12T21:56:33.620Z,98151.59
2022-12-12T21:59:00.329Z,98160.59
2022-12-12T22:01:27.671Z,98154.53
2022-12-12T22:03:55.280Z,98148.56
2022-12-12T22:06:25.168Z,98147.63
2022-12-12T22:08:53.839Z,98145.91
2022-12-12T22:11:40.193Z,98146.19
2022-12-12T22:14:08.677Z,98146.38
2022-12-12T22:16:36.254Z,98151.50
2022-12-12T22:19:06.416Z,98146.31
2022-12-12T22:21:33.859Z,98139.94
2022-12-12T22:24:01.118Z,98143.66
2022-12-12T22:26:34.479Z,98146.66
2022-12-12T22:29:04.916Z,98139.75
2022-12-12T22:31:35.682Z,98144.84
2022-12-12T22:34:05.615Z,98142.13
2022-12-12T22:36:36.612Z,98149.03
2022-12-12T22:39:05.828Z,98153.03
2022-12-12T22:41:32.570Z,98149.84
2022-12-12T22:44:01.481Z,98146.38
2022-12-12T22:46:28.853Z,98148.16
2022-12-12T22:49:00.303Z,98142.75
2022-12-12T22:51:32.009Z,98141.00
2022-12-12T22:54:01.219Z,98145.88
2022-12-12T22:56:29.395Z,98123.75
2022-12-12T22:58:56.475Z,98136.47
2022-12-12T23:01:24.541Z,98131.13
2022-12-12T23:03:51.935Z,98135.88
2022-12-12T23:06:35.625Z,98126.72
2022-12-12T23:09:08.366Z,98128.34
2022-12-12T23:11:35.678Z,98116.25
2022-12-12T23:14:06.394Z,98110.53
2022-12-12T23:16:35.711Z,98121.59
2022-12-12T23:19:07.273Z,98126.91
2022-12-12T23:21:35.994Z,98129.28
2022-12-12T23:24:03.520Z,98124.00
2022-12-12T23:26:31.872Z,98132.84
2022-12-12T23:28:59.889Z,98131.31
2022-12-12T23:31:34.681Z,98126.59
2022-12-12T23:34:07.432Z,98122.38
2022-12-12T23:36:34.138Z,98127.59
2022-12-12T23:39:04.890Z,98131.72
2022-12-12T23:41:31.645Z,98121.94
2022-12-12T23:43:58.340Z,98127.72
2022-12-12T23:46:28.999Z,98125.28
2022-12-12T23:49:01.267Z,98123.97
2022-12-12T23:51:30.096Z,98120.75
2022-12-12T23:53:58.616Z,98120.38
2022-12-12T23:56:25.935Z,98118.94
2022-12-12T23:58:54.146Z,98125.00
